Main page
METAR-TAF:

METAR-TAF

Airports :

Warsaw Chopin Airport

Warsaw, Poland

latitude: 52-10N, longitude: 020-58E, elevation: 106 m

Current weather observation

The report was made 21 minutes ago, at 21:00 UTC
Wind 9 kt from the North
Temperature 14°C
Humidity 41%
Pressure 1025 hPa
Visibility 10 km or more
no clouds below 1500 m and no cumulonimbus

METAR: EPWA 202100Z 01009KT CAVOK 14/01 Q1025 NOSIG

Time: 23:21 (21:21 UTC)

Forecast

The report was made 51 minutes ago, at 20:30 UTC
Forecast valid from 20 at 21 UTC to 21 at 21 UTC
Wind 5 kt from the North/Northwest
Visibility 10 km or more
no clouds below 1500 m and no cumulonimbus
Becoming
from 21 at 13 UTC to 21 at 15 UTC
Wind 10 kt from the Northeast
Probability 40% :
Temporary
from 21 at 13 UTC to 21 at 18 UTC
Broken clouds at a height of 2000 ft, Cumulonimbus.
light rain showers

TAF: EPWA 202030Z 2021/2121 34005KT CAVOK BECMG 2113/2115 04010KT PROB40 TEMPO 2113/2118 -SHRA BKN020CB

Weather observations and forecasts of more than 4000 airports (METAR and TAF reports).

The available stations are represented by yellow and red dots on the map.

Hover mouse over dot to see the name of the station.

Then click to see weather observations and forecasts.

To change the map : click on the green buttons with a black cross to zoom in, on the green button with a dash to zoom out, or on the green arrows for adjacent maps.


METAR-TAF: